Time;durP1;ratioP1;P1;durP2;ratioP2;P2;SDS_P1;SDS_P2;PMS_P1;PMS_P2;Temp;Humidity;BMP_temperature;BMP_pressure;BME280_temperature;BME280_humidity;BME280_pressure;Samples;Min_cycle;Max_cycle;Signal;HPM_P1;HPM_P2
2023/03/31 00:01:11;;;;;;;10.77;5.10;;;;;;;6.05;100.00;100217.19;5049773;28;20510;-70
2023/03/31 00:03:37;;;;;;;8.85;5.18;;;;;;;6.67;100.00;100271.47;5051423;28;20447;-70
2023/03/31 00:06:05;;;;;;;7.38;4.90;;;;;;;6.56;100.00;100258.94;5050205;28;20361;-69
2023/03/31 00:08:34;;;;;;;8.95;5.25;;;;;;;6.73;100.00;100299.22;5051088;28;20124;-70
2023/03/31 00:11:01;;;;;;;6.88;5.20;;;;;;;6.51;100.00;100273.28;5051050;28;20037;-70
2023/03/31 00:13:28;;;;;;;8.93;5.30;;;;;;;6.99;100.00;100312.50;5050450;28;20048;-70
2023/03/31 00:16:02;;;;;;;11.05;6.03;;;;;;;6.99;100.00;100304.91;5050763;28;20407;-71
2023/03/31 00:18:28;;;;;;;10.07;6.20;;;;;;;6.86;100.00;100308.38;5051366;28;20060;-71
2023/03/31 00:20:58;;;;;;;8.82;6.15;;;;;;;7.06;100.00;100305.69;5051437;28;20069;-70
2023/03/31 00:23:26;;;;;;;8.77;5.82;;;;;;;6.97;100.00;100299.03;5049713;28;20036;-71
2023/03/31 00:25:54;;;;;;;7.90;5.60;;;;;;;7.07;100.00;100262.72;5049535;28;20474;-70
2023/03/31 00:28:20;;;;;;;9.48;5.63;;;;;;;6.92;100.00;100288.97;5050963;28;20155;-70
2023/03/31 00:30:46;;;;;;;8.68;5.10;;;;;;;6.76;100.00;100300.03;5050754;28;20125;-70
2023/03/31 00:33:12;;;;;;;9.30;5.80;;;;;;;6.73;100.00;100274.81;5049369;28;20143;-71
2023/03/31 00:35:39;;;;;;;9.93;6.28;;;;;;;6.72;100.00;100295.84;5050719;28;20109;-70
2023/03/31 00:38:07;;;;;;;8.88;6.38;;;;;;;6.69;100.00;100279.88;5049186;28;20029;-70
2023/03/31 00:40:33;;;;;;;10.63;6.82;;;;;;;6.89;100.00;100283.09;5050398;28;20463;-70
2023/03/31 00:42:59;;;;;;;8.73;6.22;;;;;;;6.78;100.00;100290.75;5050512;28;20021;-70
2023/03/31 00:45:28;;;;;;;8.38;5.72;;;;;;;6.32;100.00;100233.03;5049556;28;20469;-70
2023/03/31 00:48:09;;;;;;;8.60;5.68;;;;;;;6.78;100.00;100232.66;5050585;28;20037;-70
2023/03/31 00:50:40;;;;;;;9.50;5.82;;;;;;;7.27;100.00;100276.00;5050677;28;20119;-70
2023/03/31 00:53:15;;;;;;;5.72;4.32;;;;;;;7.06;100.00;100271.16;5049804;28;20075;-70
2023/03/31 00:55:47;;;;;;;9.27;5.43;;;;;;;6.86;100.00;100268.78;5050893;28;20032;-70
2023/03/31 00:58:19;;;;;;;9.00;6.00;;;;;;;6.36;100.00;100190.06;5048869;28;20144;-71
2023/03/31 01:00:46;;;;;;;8.38;6.03;;;;;;;6.37;100.00;100176.59;5050501;28;20036;-70
2023/03/31 01:03:12;;;;;;;11.32;7.05;;;;;;;6.97;100.00;100256.06;5050564;28;20033;-71
2023/03/31 01:05:58;;;;;;;8.20;5.82;;;;;;;6.42;100.00;100207.69;5050996;28;20039;-70
2023/03/31 01:08:26;;;;;;;9.15;6.47;;;;;;;6.65;100.00;100263.94;5050414;28;20103;-70
2023/03/31 01:11:03;;;;;;;10.90;6.68;;;;;;;6.87;100.00;100211.53;5049995;28;20471;-71
2023/03/31 01:13:30;;;;;;;8.80;6.20;;;;;;;6.59;100.00;100212.63;5050269;28;20033;-71
2023/03/31 01:15:55;;;;;;;9.00;6.05;;;;;;;6.71;100.00;100238.63;5049067;28;20029;-70
2023/03/31 01:18:22;;;;;;;8.77;6.40;;;;;;;6.46;100.00;100195.88;5048779;28;20044;-72
2023/03/31 01:21:14;;;;;;;10.18;6.07;;;;;;;6.67;100.00;100248.75;5048823;28;20029;-71
2023/03/31 01:24:05;;;;;;;9.70;6.00;;;;;;;6.80;100.00;100236.00;5046170;28;20044;-70
2023/03/31 01:26:49;;;;;;;9.35;6.53;;;;;;;6.86;100.00;100230.03;5050959;28;20040;-70
2023/03/31 01:29:40;;;;;;;9.02;6.15;;;;;;;6.74;100.00;100231.00;5050031;28;20116;-71
2023/03/31 01:32:31;;;;;;;8.23;5.93;;;;;;;6.43;100.00;100229.56;5049950;28;20064;-70
2023/03/31 01:35:19;;;;;;;8.85;6.65;;;;;;;6.71;100.00;100226.00;5050157;28;20035;-71
2023/03/31 01:37:56;;;;;;;11.77;7.20;;;;;;;6.32;100.00;100213.66;5048662;28;20036;-70
2023/03/31 01:40:22;;;;;;;12.38;6.70;;;;;;;6.54;100.00;100204.22;5049064;28;20056;-70
2023/03/31 01:42:58;;;;;;;8.40;5.97;;;;;;;6.14;100.00;100207.03;5048654;28;20061;-70
2023/03/31 01:45:33;;;;;;;10.10;6.30;;;;;;;6.44;100.00;100183.25;5049856;28;20146;-71
2023/03/31 01:48:07;;;;;;;8.75;6.80;;;;;;;6.08;100.00;100176.78;5049711;28;20475;-71
2023/03/31 01:50:42;;;;;;;8.98;6.35;;;;;;;6.12;100.00;100167.50;5049535;28;20041;-70
2023/03/31 01:53:30;;;;;;;9.75;6.45;;;;;;;6.13;100.00;100133.88;5048565;28;20033;-70
2023/03/31 01:56:12;;;;;;;10.77;6.88;;;;;;;5.96;100.00;100183.63;5050502;28;20036;-70
2023/03/31 01:58:53;;;;;;;9.15;5.55;;;;;;;5.96;100.00;100140.75;5053628;28;20136;-71
2023/03/31 02:01:25;;;;;;;10.38;6.70;;;;;;;5.81;100.00;100130.69;5052466;28;20047;-71
2023/03/31 02:03:59;;;;;;;10.52;7.25;;;;;;;6.06;100.00;100138.13;5053751;28;20028;-71
2023/03/31 02:06:32;;;;;;;9.88;6.63;;;;;;;5.70;100.00;100108.09;5052789;28;20037;-73
2023/03/31 02:09:02;;;;;;;9.23;6.72;;;;;;;5.58;100.00;100093.03;5053209;28;20055;-72
2023/03/31 02:11:31;;;;;;;12.30;5.18;;;;;;;5.84;100.00;100123.16;5053744;28;20094;-71
2023/03/31 02:14:00;;;;;;;12.15;7.10;;;;;;;6.11;100.00;100146.50;5053596;28;20507;-71
2023/03/31 02:16:29;;;;;;;13.02;7.05;;;;;;;5.69;100.00;100082.84;5053551;28;20108;-71
2023/03/31 02:19:01;;;;;;;8.65;6.82;;;;;;;6.04;100.00;100112.06;5051802;28;20060;-71
2023/03/31 02:21:32;;;;;;;10.38;6.75;;;;;;;6.16;100.00;100118.69;5052780;28;20064;-72
2023/03/31 02:24:03;;;;;;;10.60;6.60;;;;;;;5.69;100.00;100077.81;5053636;28;20083;-71
2023/03/31 02:26:35;;;;;;;9.63;6.80;;;;;;;5.89;100.00;100103.78;5053195;28;20037;-71
2023/03/31 02:29:00;;;;;;;10.70;6.97;;;;;;;5.89;100.00;100106.28;5053304;28;20090;-71
2023/03/31 02:31:44;;;;;;;8.75;7.32;;;;;;;6.01;100.00;100121.34;5052910;28;20040;-71
2023/03/31 02:34:10;;;;;;;10.13;7.75;;;;;;;5.98;100.00;100107.06;5053223;28;20048;-70
2023/03/31 02:36:35;;;;;;;11.48;7.85;;;;;;;5.40;100.00;100080.53;5051720;28;20025;-71
2023/03/31 02:39:06;;;;;;;9.45;6.78;;;;;;;5.64;100.00;100064.41;5052599;28;20032;-71
2023/03/31 02:41:32;;;;;;;9.05;6.40;;;;;;;5.79;100.00;100113.06;5053298;28;20116;-70
2023/03/31 02:43:57;;;;;;;11.43;6.45;;;;;;;5.37;100.00;100031.84;5051932;28;20120;-71
2023/03/31 02:46:24;;;;;;;8.60;6.22;;;;;;;5.73;100.00;100103.00;5052432;28;20514;-70
2023/03/31 02:48:54;;;;;;;10.75;6.57;;;;;;;5.68;100.00;100063.56;5051844;28;20040;-70
2023/03/31 02:51:39;;;;;;;8.73;6.50;;;;;;;5.58;100.00;100109.84;5053127;28;20025;-70
2023/03/31 02:54:31;;;;;;;11.07;6.82;;;;;;;5.43;100.00;100085.53;5052764;28;20033;-70
2023/03/31 02:57:19;;;;;;;8.68;6.43;;;;;;;5.63;100.00;100088.78;5051887;28;20487;-71
2023/03/31 03:00:08;;;;;;;10.43;7.13;;;;;;;5.87;100.00;100088.66;5052654;28;20036;-71
2023/03/31 03:03:13;;;;;;;10.68;7.43;;;;;;;5.56;100.00;100091.38;5051645;28;20036;-70
2023/03/31 03:05:48;;;;;;;13.23;8.32;;;;;;;5.87;100.00;100088.66;5010527;28;20527;-70
2023/03/31 03:08:39;;;;;;;13.38;8.45;;;;;;;5.89;100.00;100088.63;5045875;28;20041;-70
2023/03/31 03:11:23;;;;;;;12.47;8.23;;;;;;;5.84;100.00;100090.38;5050606;28;20064;-70
2023/03/31 03:14:04;;;;;;;18.95;11.15;;;;;;;5.80;100.00;100106.34;5032229;28;20041;-71
2023/03/31 03:16:40;;;;;;;12.73;7.90;;;;;;;5.99;100.00;100072.59;5032914;28;20454;-72
2023/03/31 03:19:06;;;;;;;17.10;10.23;;;;;;;5.89;100.00;100076.03;5032446;28;20040;-71
2023/03/31 03:21:32;;;;;;;20.17;10.25;;;;;;;6.06;100.00;100124.69;5030822;28;20412;-71
2023/03/31 03:23:59;;;;;;;15.38;9.82;;;;;;;5.89;100.00;100093.69;5064438;28;20069;-71
2023/03/31 03:26:26;;;;;;;13.85;9.23;;;;;;;6.11;100.00;100112.88;5032577;28;20033;-72
2023/03/31 03:28:53;;;;;;;12.55;7.88;;;;;;;6.17;100.00;100130.47;5031303;28;20052;-71
2023/03/31 03:31:22;;;;;;;11.75;8.25;;;;;;;5.94;100.00;100100.34;5030971;28;20044;-71
2023/03/31 03:33:49;;;;;;;15.48;8.85;;;;;;;6.23;100.00;100135.47;5030855;28;20041;-71
2023/03/31 03:36:15;;;;;;;23.77;13.63;;;;;;;6.33;100.00;100096.69;5063956;28;20408;-71
2023/03/31 03:38:41;;;;;;;22.60;13.20;;;;;;;6.58;100.00;100145.25;5030309;28;20033;-71
2023/03/31 03:41:06;;;;;;;20.75;11.75;;;;;;;6.48;100.00;100100.75;5030755;28;20030;-69
2023/03/31 03:43:32;;;;;;;22.98;11.10;;;;;;;6.98;100.00;100056.41;5063980;28;20175;-70
2023/03/31 03:45:57;;;;;;;21.98;13.30;;;;;;;6.58;100.00;100080.44;5031696;28;20112;-70
2023/03/31 03:48:23;;;;;;;27.65;17.75;;;;;;;6.76;100.00;100137.50;5032348;28;20103;-70
2023/03/31 03:50:48;;;;;;;14.50;8.98;;;;;;;6.38;100.00;100135.34;5031653;28;20056;-71
2023/03/31 03:53:14;;;;;;;18.92;7.78;;;;;;;8.43;100.00;100018.75;5030647;28;20037;-71
2023/03/31 03:55:40;;;;;;;13.35;8.73;;;;;;;6.80;100.00;100137.47;5036619;28;20028;-70
2023/03/31 03:58:06;;;;;;;13.07;8.00;;;;;;;8.67;100.00;100068.13;5051460;28;20071;-70
2023/03/31 04:00:32;;;;;;;17.90;10.95;;;;;;;6.80;100.00;100141.69;5051737;28;20468;-69
2023/03/31 04:02:57;;;;;;;21.13;12.35;;;;;;;6.92;100.00;100096.06;5050899;28;20041;-71
2023/03/31 04:05:23;;;;;;;20.27;12.93;;;;;;;6.67;100.00;100137.63;5051286;28;20048;-71
2023/03/31 04:07:48;;;;;;;20.05;13.32;;;;;;;6.85;100.00;100142.47;5050912;28;20122;-70
2023/03/31 04:10:14;;;;;;;20.75;12.82;;;;;;;6.66;100.00;100103.94;5051414;28;20083;-70
2023/03/31 04:12:40;;;;;;;21.42;13.55;;;;;;;6.53;100.00;100099.88;5049886;28;20120;-70
2023/03/31 04:15:06;;;;;;;20.10;12.63;;;;;;;6.59;100.00;100096.44;5051520;28;20032;-70
2023/03/31 04:17:31;;;;;;;17.20;11.25;;;;;;;6.55;100.00;100098.16;5049661;28;20104;-72
2023/03/31 04:20:04;;;;;;;18.17;11.77;;;;;;;6.49;100.00;100099.91;5050726;28;20942;-71
2023/03/31 04:22:33;;;;;;;21.80;14.60;;;;;;;6.49;100.00;100100.75;5051307;28;20033;-70
2023/03/31 04:25:13;;;;;;;24.73;19.02;;;;;;;6.93;100.00;100063.19;5048845;28;20041;-68
2023/03/31 04:27:45;;;;;;;22.35;16.90;;;;;;;6.98;100.00;100103.59;5050919;28;20037;-70
2023/03/31 04:30:11;;;;;;;;;;;;;;;6.75;100.00;100129.13;5049758;28;20041;-69
2023/03/31 04:32:37;;;;;;;19.42;12.65;;;;;;;6.91;100.00;100128.06;5050705;28;19935;-71
2023/03/31 04:35:03;;;;;;;18.58;10.77;;;;;;;6.63;100.00;100131.75;5050557;28;20033;-70
2023/03/31 04:37:33;;;;;;;17.40;11.15;;;;;;;6.46;100.00;100095.72;5049956;28;20025;-69
2023/03/31 04:40:05;;;;;;;17.88;11.57;;;;;;;6.88;100.00;100148.34;5048809;28;20029;-70
2023/03/31 04:42:30;;;;;;;34.67;25.55;;;;;;;6.77;100.00;100134.97;5029784;28;20063;-70
2023/03/31 04:44:56;;;;;;;20.92;14.20;;;;;;;6.62;100.00;100131.75;5030506;28;20496;-70
2023/03/31 04:47:21;;;;;;;20.73;14.82;;;;;;;6.72;100.00;100129.13;5038280;28;20025;-71
2023/03/31 04:49:47;;;;;;;23.45;16.10;;;;;;;7.05;100.00;100117.84;5050346;28;20036;-70
2023/03/31 04:52:12;;;;;;;20.90;13.05;;;;;;;6.96;100.00;100068.22;5047248;28;20060;-71
2023/03/31 04:54:37;;;;;;;19.25;11.68;;;;;;;6.71;100.00;100109.78;5030916;28;20795;-72
2023/03/31 04:57:03;;;;;;;17.00;11.18;;;;;;;7.04;100.00;100131.31;5029296;28;20033;-70
2023/03/31 04:59:28;;;;;;;18.85;10.90;;;;;;;6.68;100.00;100082.03;5029258;28;20037;-71
2023/03/31 05:01:54;;;;;;;23.80;13.88;;;;;;;6.83;100.00;100134.09;5029437;28;20029;-69
2023/03/31 05:04:19;;;;;;;21.05;12.88;;;;;;;6.78;100.00;100048.22;5030575;28;20029;-69
2023/03/31 05:06:45;;;;;;;26.35;11.95;;;;;;;6.92;100.00;100101.97;5030349;28;20480;-71
2023/03/31 05:09:10;;;;;;;26.27;12.05;;;;;;;6.89;100.00;100096.13;5030160;28;20480;-70
2023/03/31 05:11:37;;;;;;;30.73;12.73;;;;;;;7.25;100.00;100135.28;5030303;28;20060;-69
2023/03/31 05:14:03;;;;;;;31.70;17.25;;;;;;;7.07;100.00;100069.78;5030754;28;20472;-70
2023/03/31 05:16:28;;;;;;;25.95;16.45;;;;;;;7.35;100.00;100132.63;5031326;28;20049;-70
2023/03/31 05:18:54;;;;;;;21.42;12.77;;;;;;;6.99;100.00;100064.84;5028988;28;20412;-69
2023/03/31 05:21:20;;;;;;;19.50;11.45;;;;;;;7.35;100.00;100109.84;5030319;28;20479;-69
2023/03/31 05:23:46;;;;;;;21.25;11.85;;;;;;;7.16;100.00;100049.44;5029045;28;20136;-69
2023/03/31 05:26:13;;;;;;;23.05;13.63;;;;;;;7.01;100.00;100109.44;5030311;28;20143;-71
2023/03/31 05:28:39;;;;;;;25.58;14.85;;;;;;;6.94;100.00;100051.41;5030089;28;20041;-70
2023/03/31 05:31:06;;;;;;;21.08;11.88;;;;;;;7.40;100.00;100109.81;5031265;28;20074;-69
2023/03/31 05:33:32;;;;;;;20.25;11.50;;;;;;;7.33;100.00;100103.16;5032870;28;20500;-69
2023/03/31 05:35:59;;;;;;;17.27;10.02;;;;;;;7.20;100.00;100056.97;5032903;28;20109;-70
2023/03/31 05:38:27;;;;;;;15.80;8.80;;;;;;;7.56;100.00;100112.13;5032490;28;20500;-70
2023/03/31 05:40:54;;;;;;;11.95;7.68;;;;;;;7.25;100.00;100059.44;5033985;28;20175;-69
2023/03/31 05:43:19;;;;;;;12.88;7.85;;;;;;;7.31;100.00;100064.44;5032810;28;20030;-70
2023/03/31 05:45:45;;;;;;;13.00;7.45;;;;;;;7.30;100.00;100048.41;5033729;28;20032;-69
2023/03/31 05:48:10;;;;;;;13.00;8.38;;;;;;;7.66;100.00;100064.75;5033562;28;20148;-70
2023/03/31 05:50:36;;;;;;;10.50;7.20;;;;;;;7.96;100.00;100102.25;5034054;28;20030;-70
2023/03/31 05:53:01;;;;;;;11.95;8.40;;;;;;;7.85;100.00;100094.81;5033452;28;20504;-71
2023/03/31 05:55:26;;;;;;;15.77;9.20;;;;;;;8.04;100.00;100071.75;5032821;28;20057;-70
2023/03/31 05:57:53;;;;;;;20.10;9.70;;;;;;;8.17;100.00;100086.72;5033830;28;20026;-70
2023/03/31 06:00:19;;;;;;;11.35;8.15;;;;;;;8.07;100.00;100090.25;5034296;28;20119;-69
2023/03/31 06:02:44;;;;;;;14.90;8.65;;;;;;;7.92;100.00;100034.81;5034005;28;20112;-70
2023/03/31 06:05:10;;;;;;;12.32;7.88;;;;;;;8.23;100.00;100086.63;5032200;28;20456;-70
2023/03/31 06:07:35;;;;;;;8.52;6.38;;;;;;;7.14;100.00;100031.78;5034266;28;20490;-70
2023/03/31 06:10:00;;;;;;;10.98;6.50;;;;;;;7.86;100.00;100032.41;5032845;28;20041;-70
2023/03/31 06:12:26;;;;;;;12.65;7.60;;;;;;;8.26;100.00;100062.97;5034330;28;20047;-71
2023/03/31 06:14:52;;;;;;;13.48;8.77;;;;;;;7.85;100.00;100021.44;5033546;28;20131;-72
2023/03/31 06:17:17;;;;;;;14.43;8.73;;;;;;;8.34;100.00;100074.63;5034052;28;20037;-71
2023/03/31 06:19:43;;;;;;;20.75;8.98;;;;;;;8.06;100.00;100078.44;5033815;28;20037;-71
2023/03/31 06:22:08;;;;;;;17.77;10.85;;;;;;;7.73;100.00;100046.09;5032597;28;20068;-70
2023/03/31 06:24:33;;;;;;;17.02;11.18;;;;;;;7.57;100.00;100029.47;5033165;28;20396;-70
2023/03/31 06:27:00;;;;;;;26.42;16.65;;;;;;;7.89;100.00;100035.69;5032219;28;20559;-70
2023/03/31 06:29:26;;;;;;;15.35;8.98;;;;;;;7.41;100.00;100041.50;5034090;28;20465;-71
2023/03/31 06:31:52;;;;;;;14.80;8.27;;;;;;;8.22;100.00;100074.00;5032076;28;20032;-71
2023/03/31 06:34:18;;;;;;;14.02;8.10;;;;;;;8.50;100.00;100040.56;5033169;28;20116;-70
2023/03/31 06:36:43;;;;;;;12.27;8.60;;;;;;;7.79;100.00;100010.56;5033271;28;20030;-69
2023/03/31 06:39:08;;;;;;;16.00;11.05;;;;;;;8.41;100.00;100035.69;5031746;28;20128;-69
2023/03/31 06:41:34;;;;;;;11.20;8.30;;;;;;;8.39;100.00;100049.22;5030105;28;20254;-70
2023/03/31 06:43:59;;;;;;;17.33;8.48;;;;;;;8.61;100.00;100055.56;5032346;28;20577;-70
2023/03/31 06:46:25;;;;;;;14.88;9.38;;;;;;;9.07;100.00;100042.81;5032898;28;20033;-69
2023/03/31 06:48:50;;;;;;;14.63;8.77;;;;;;;8.67;100.00;100053.75;5033841;28;20032;-69
2023/03/31 06:51:16;;;;;;;10.88;8.45;;;;;;;9.34;100.00;100075.19;5032594;28;20435;-71
2023/03/31 06:53:41;;;;;;;12.55;7.97;;;;;;;9.98;100.00;100088.09;5033331;28;20032;-69
2023/03/31 06:56:06;;;;;;;11.25;8.15;;;;;;;10.05;100.00;100069.31;5045933;28;20029;-69
2023/03/31 06:58:33;;;;;;;16.27;8.13;;;;;;;9.86;100.00;100041.84;5050987;28;20037;-70
2023/03/31 07:01:01;;;;;;;12.95;8.85;;;;;;;9.20;100.00;100054.38;5051586;28;20057;-69
2023/03/31 07:03:28;;;;;;;11.45;7.82;;;;;;;9.09;100.00;100081.66;5052948;28;20392;-70
2023/03/31 07:05:54;;;;;;;12.73;9.73;;;;;;;9.79;100.00;100075.88;5051208;28;20523;-68
2023/03/31 07:08:21;;;;;;;13.68;8.05;;;;;;;10.00;100.00;100085.53;5051321;28;20033;-69
2023/03/31 07:10:49;;;;;;;12.02;6.80;;;;;;;8.65;100.00;100055.50;5052269;28;20496;-71
2023/03/31 07:13:16;;;;;;;9.00;6.05;;;;;;;8.71;100.00;100074.81;5052167;28;20131;-70
2023/03/31 07:15:41;;;;;;;10.90;5.78;;;;;;;8.79;100.00;100072.13;5052156;28;20040;-69
2023/03/31 07:18:07;;;;;;;9.60;6.30;;;;;;;8.95;100.00;100053.22;5050861;28;20416;-70
2023/03/31 07:20:33;;;;;;;14.35;6.72;;;;;;;8.94;100.00;100013.50;5052116;28;20104;-70
2023/03/31 07:22:58;;;;;;;7.50;5.88;;;;;;;8.97;100.00;100018.53;5051937;28;20049;-69
2023/03/31 07:25:24;;;;;;;12.73;7.25;;;;;;;8.67;100.00;99997.16;5050788;28;20161;-69
2023/03/31 07:27:50;;;;;;;11.57;6.18;;;;;;;8.55;100.00;100048.91;5052193;28;20036;-70
2023/03/31 07:30:17;;;;;;;10.82;6.32;;;;;;;8.79;100.00;100007.06;5051658;28;20041;-70
2023/03/31 07:32:46;;;;;;;13.40;7.65;;;;;;;8.68;100.00;99989.53;5051847;28;20037;-70
2023/03/31 07:35:12;;;;;;;11.43;7.38;;;;;;;8.80;100.00;100000.28;5052015;28;20060;-69
2023/03/31 07:37:40;;;;;;;11.65;7.90;;;;;;;8.95;100.00;99992.38;5052441;28;20064;-70
2023/03/31 07:40:06;;;;;;;15.43;13.10;;;;;;;8.98;100.00;100028.63;5051691;28;20029;-69
2023/03/31 07:42:32;;;;;;;14.15;10.43;;;;;;;9.33;100.00;100031.22;5049337;28;20033;-69
2023/03/31 07:44:58;;;;;;;13.18;9.50;;;;;;;9.16;100.00;99971.59;5051384;28;20029;-69
2023/03/31 07:47:24;;;;;;;12.93;8.45;;;;;;;9.04;100.00;100020.03;5049275;28;20029;-70
2023/03/31 07:49:49;;;;;;;11.13;8.23;;;;;;;8.69;100.00;99980.22;5049693;28;20565;-69
2023/03/31 07:52:16;;;;;;;13.75;8.50;;;;;;;8.67;100.00;99985.34;5051628;28;20067;-70
2023/03/31 07:54:41;;;;;;;11.43;7.63;;;;;;;8.54;100.00;99952.66;5050977;28;20037;-70
2023/03/31 07:57:07;;;;;;;11.48;7.40;;;;;;;9.01;100.00;99994.78;5051350;28;20476;-70
2023/03/31 07:59:32;;;;;;;9.38;7.40;;;;;;;8.96;100.00;99982.19;5050281;28;20197;-69
2023/03/31 08:01:58;;;;;;;11.50;7.50;;;;;;;8.81;100.00;99976.59;5051640;28;20068;-69
2023/03/31 08:04:24;;;;;;;13.60;7.72;;;;;;;9.07;100.00;99921.09;5049641;28;20475;-69
2023/03/31 08:06:50;;;;;;;11.15;7.60;;;;;;;9.35;100.00;99962.69;5051276;28;20052;-69
2023/03/31 08:09:17;;;;;;;18.30;11.00;;;;;;;9.35;100.00;99939.88;5049896;28;20039;-69
2023/03/31 08:11:43;;;;;;;16.02;9.80;;;;;;;9.19;100.00;99939.41;5051082;28;20126;-70
2023/03/31 08:14:09;;;;;;;12.60;8.15;;;;;;;8.99;100.00;99945.81;5050369;28;20467;-70
2023/03/31 08:16:34;;;;;;;12.95;8.15;;;;;;;8.81;100.00;99933.53;5051298;28;20078;-69
2023/03/31 08:19:00;;;;;;;10.40;7.47;;;;;;;8.59;100.00;99865.59;5048897;28;20533;-70
2023/03/31 08:21:27;;;;;;;11.75;8.13;;;;;;;8.48;100.00;99849.75;5049983;28;20025;-69
2023/03/31 08:23:56;;;;;;;19.35;11.88;;;;;;;8.24;100.00;99794.53;5051387;28;20079;-72
2023/03/31 08:26:23;;;;;;;16.92;9.95;;;;;;;8.87;100.00;99835.38;5050751;28;20465;-69
2023/03/31 08:28:49;;;;;;;12.43;9.13;;;;;;;8.88;100.00;99808.31;5049874;28;20086;-70
2023/03/31 08:31:16;;;;;;;14.25;10.27;;;;;;;9.08;100.00;99779.06;5050847;28;20172;-69
2023/03/31 08:33:42;;;;;;;13.77;9.80;;;;;;;9.05;100.00;99789.28;5051005;28;20029;-69
2023/03/31 08:36:09;;;;;;;14.18;9.00;;;;;;;9.22;100.00;99827.75;5049439;28;20033;-69
2023/03/31 08:38:40;;;;;;;16.42;9.07;;;;;;;9.01;100.00;99785.19;5049516;28;20414;-69
2023/03/31 08:41:19;;;;;;;20.80;12.35;;;;;;;9.32;100.00;99780.16;5051104;28;20072;-69
2023/03/31 08:43:47;;;;;;;16.58;9.70;;;;;;;9.03;100.00;99807.97;5050572;28;20518;-69
2023/03/31 08:46:16;;;;;;;19.63;11.23;;;;;;;8.75;100.00;99797.66;5051080;28;20047;-69
2023/03/31 08:48:50;;;;;;;14.55;10.23;;;;;;;9.25;100.00;99768.50;5050659;28;20033;-70
2023/03/31 08:51:20;;;;;;;13.25;9.40;;;;;;;9.52;100.00;99788.06;5050277;28;20029;-70
2023/03/31 08:54:11;;;;;;;13.63;10.05;;;;;;;8.92;100.00;99797.22;5049322;28;20036;-69
2023/03/31 08:56:40;;;;;;;15.73;11.10;;;;;;;10.02;100.00;99843.34;5050742;28;20036;-69
2023/03/31 08:59:33;;;;;;;14.65;10.23;;;;;;;9.49;100.00;99808.44;5048486;28;20033;-69
2023/03/31 09:02:21;;;;;;;8.85;6.65;;;;;;;10.09;100.00;99861.78;5048800;28;20545;-70
2023/03/31 09:05:05;;;;;;;8.30;6.82;;;;;;;10.29;100.00;99868.03;5048375;28;20043;-71
2023/03/31 09:07:48;;;;;;;13.90;8.48;;;;;;;10.18;100.00;99824.28;5049605;28;20075;-70
2023/03/31 09:10:23;;;;;;;15.73;10.05;;;;;;;9.77;100.00;99893.13;5048877;28;20029;-71
2023/03/31 09:13:10;;;;;;;15.98;8.77;;;;;;;9.99;100.00;99913.69;5049237;28;20048;-69
2023/03/31 09:16:11;;;;;;;13.50;8.70;;;;;;;10.78;100.00;99902.16;5050562;28;20060;-70
2023/03/31 09:18:38;;;;;;;17.10;7.75;;;;;;;11.01;100.00;99920.09;5050262;28;20033;-70
2023/03/31 09:21:26;;;;;;;13.00;8.68;;;;;;;11.65;100.00;99881.50;5050595;28;20037;-69
2023/03/31 09:24:10;;;;;;;14.07;8.10;;;;;;;12.78;100.00;99940.31;5049164;28;20032;-70
2023/03/31 09:26:39;;;;;;;10.88;7.47;;;;;;;12.84;100.00;99935.81;5050303;28;20035;-69
2023/03/31 09:29:17;;;;;;;10.07;6.57;;;;;;;11.58;100.00;99915.69;5050063;28;20462;-69
2023/03/31 09:31:43;;;;;;;9.35;6.85;;;;;;;11.49;100.00;99921.06;5049264;28;20394;-68
2023/03/31 09:34:15;;;;;;;10.13;6.97;;;;;;;12.20;100.00;99929.69;5029962;28;20565;-67
2023/03/31 09:36:41;;;;;;;8.63;5.43;;;;;;;12.17;100.00;99853.34;5028868;28;20030;-69
2023/03/31 09:39:12;;;;;;;8.93;6.50;;;;;;;12.13;100.00;99882.38;5028636;28;20060;-69
2023/03/31 09:41:42;;;;;;;9.38;5.95;;;;;;;11.88;100.00;99903.69;5029911;28;20033;-69
2023/03/31 09:44:27;;;;;;;10.35;6.72;;;;;;;12.22;100.00;99903.31;5030295;28;20037;-70
2023/03/31 09:46:53;;;;;;;11.40;7.03;;;;;;;12.76;100.00;99906.38;5029700;28;20026;-69
2023/03/31 09:49:22;;;;;;;14.98;8.23;;;;;;;12.34;100.00;99908.00;5028424;28;20068;-69
2023/03/31 09:51:59;;;;;;;11.77;7.80;;;;;;;12.32;100.00;99890.19;5028747;28;20112;-70
2023/03/31 09:54:35;;;;;;;10.25;7.80;;;;;;;13.04;100.00;99900.19;5030247;28;20164;-70
2023/03/31 09:57:01;;;;;;;10.63;6.90;;;;;;;11.91;100.00;99875.53;5028219;28;20124;-70
2023/03/31 09:59:34;;;;;;;9.90;7.03;;;;;;;12.34;100.00;99845.06;5028969;28;20175;-70
2023/03/31 10:02:37;;;;;;;22.58;14.02;;;;;;;12.71;100.00;99840.25;5029014;28;20060;-70
2023/03/31 10:05:04;;;;;;;13.38;7.78;;;;;;;13.11;100.00;99859.94;5028693;28;20037;-70
2023/03/31 10:07:30;;;;;;;10.30;6.90;;;;;;;12.47;100.00;99855.66;5028558;28;20061;-69
2023/03/31 10:09:56;;;;;;;10.85;7.00;;;;;;;12.26;100.00;99834.31;5029567;28;20068;-69
2023/03/31 10:12:27;;;;;;;8.90;6.45;;;;;;;12.27;100.00;99846.19;5029779;28;20054;-69
2023/03/31 10:15:00;;;;;;;10.68;6.40;;;;;;;12.51;100.00;99808.75;5029697;28;20124;-70
2023/03/31 10:17:26;;;;;;;9.20;6.80;;;;;;;13.19;100.00;99859.63;5031173;28;20126;-69
2023/03/31 10:19:57;;;;;;;9.23;6.82;;;;;;;12.14;100.00;99814.41;5032196;28;20561;-69
2023/03/31 10:22:30;;;;;;;11.27;6.60;;;;;;;13.33;100.00;99863.28;5033551;28;20044;-70
2023/03/31 10:25:19;;;;;;;10.75;6.10;;;;;;;13.24;100.00;99844.94;5033450;28;20376;-69
2023/03/31 10:27:50;;;;;;;12.30;6.25;;;;;;;13.34;100.00;99844.53;5033593;28;20087;-69
2023/03/31 10:30:36;;;;;;;7.72;5.95;;;;;;;13.04;100.00;99840.66;5032334;28;20091;-70
2023/03/31 10:33:10;;;;;;;9.35;5.80;;;;;;;13.13;100.00;99839.47;5034101;28;20380;-71
2023/03/31 10:35:36;;;;;;;7.85;5.53;;;;;;;13.37;100.00;99839.28;5033202;28;20033;-70
2023/03/31 10:38:13;;;;;;;8.23;6.32;;;;;;;12.87;100.00;99804.75;5032837;28;20037;-70
2023/03/31 10:40:42;;;;;;;7.75;6.20;;;;;;;14.28;100.00;99848.94;5033380;28;20032;-69
2023/03/31 10:43:16;;;;;;;8.13;5.65;;;;;;;15.10;100.00;99807.47;5033769;28;20029;-70
2023/03/31 10:46:03;;;;;;;7.60;5.70;;;;;;;15.22;100.00;99783.00;5033003;28;20568;-70
2023/03/31 10:48:36;;;;;;;8.63;5.90;;;;;;;14.60;100.00;99809.91;5032999;28;20033;-70
2023/03/31 10:51:10;;;;;;;11.05;6.65;;;;;;;15.38;100.00;99812.91;5031614;28;20128;-69
2023/03/31 10:53:59;;;;;;;8.90;5.90;;;;;;;14.22;100.00;99785.25;5032831;28;20037;-70
2023/03/31 10:56:25;;;;;;;8.93;5.80;;;;;;;14.28;100.00;99813.13;5032676;28;20095;-70
2023/03/31 10:59:10;;;;;;;8.27;6.15;;;;;;;15.07;100.00;99769.25;5032526;28;20450;-70
2023/03/31 11:01:59;;;;;;;10.80;6.47;;;;;;;15.69;100.00;99794.25;5032969;28;20037;-70
2023/03/31 11:04:34;;;;;;;9.02;6.63;;;;;;;16.97;100.00;99799.22;5031336;28;20041;-69
2023/03/31 11:07:20;;;;;;;8.77;6.43;;;;;;;16.04;100.00;99761.63;5032501;28;20140;-69
2023/03/31 11:10:12;;;;;;;10.45;6.40;;;;;;;16.18;100.00;99803.56;5033100;28;20074;-69
2023/03/31 11:12:59;;;;;;;9.27;5.82;;;;;;;17.03;100.00;99791.16;5029891;28;20045;-70
2023/03/31 11:15:34;;;;;;;9.23;5.82;;;;;;;16.81;100.00;99744.50;5032585;28;20037;-70
2023/03/31 11:18:12;;;;;;;7.78;5.38;;;;;;;17.86;100.00;99783.63;5032265;28;20082;-70
2023/03/31 11:20:45;;;;;;;10.70;6.15;;;;;;;16.61;100.00;99737.09;5032353;28;20037;-70
2023/03/31 11:23:36;;;;;;;6.80;5.45;;;;;;;18.26;100.00;99777.69;5030889;28;20025;-71
2023/03/31 11:26:10;;;;;;;6.35;4.70;;;;;;;18.91;100.00;99763.19;5030216;28;20029;-70
2023/03/31 11:28:41;;;;;;;7.10;5.07;;;;;;;17.52;100.00;99781.44;5031652;28;20431;-70
2023/03/31 11:31:35;;;;;;;5.22;4.60;;;;;;;17.57;100.00;99715.97;5032253;28;20056;-70
2023/03/31 11:34:35;;;;;;;6.22;4.90;;;;;;;17.09;100.00;99724.03;5031034;28;20559;-70
2023/03/31 11:37:34;;;;;;;7.22;4.50;;;;;;;17.81;100.00;99705.91;5031821;28;20030;-70